Racine, Wisconsin
Current Conditions -  °F | °C
As of 11:53 AM on Monday 26 Jan 2015 (Local Time) from KRAC Reporting Station
Overcast Overcast  
Wind Chill: 19°   Ceiling: 7000
Heat Index: 27°   Visibility: 10mi
Dew Point: 16°   Wind: 8mph
Humidity: 63%   Direction: 150°SSE
Pressure: 29.91"   Gusts: NA
Location:  42.73°N, 87.79°W
Report Text: KRAC 261753Z AUTO 15007KT 10SM BKN070 BKN085 OVC100 M03/M09 A2991 RMK AO2 SLP137 T10281089 11028 21083 58018
Loading
Personal Weather Stations






























Interactive Weather Map New forecast layout! Learn more

10-Day Weather Forecast

Advertisements
Track Severe Weather on mobile